Time;durP1;ratioP1;P1;durP2;ratioP2;P2;SDS_P1;SDS_P2;PMS_P1;PMS_P2;Temp;Humidity;BMP_temperature;BMP_pressure;BME280_temperature;BME280_humidity;BME280_pressure;Samples;Min_cycle;Max_cycle;Signal;HPM_P1;HPM_P2
2022/01/13 00:01:40;;;;;;;6.82;5.40;;;;;;;;;;143733;594;46018;-85
2022/01/13 00:04:10;;;;;;;9.98;6.03;;;;;;;;;;143728;605;46022;-84
2022/01/13 00:06:37;;;;;;;8.85;5.95;;;;;;;;;;143729;599;46012;-85
2022/01/13 00:09:04;;;;;;;5.72;3.40;;;;;;;;;;143728;720;46014;-84
2022/01/13 00:11:35;;;;;;;6.32;4.07;;;;;;;;;;143729;606;46013;-84
2022/01/13 00:14:25;;;;;;;7.60;4.05;;;;;;;;;;143729;582;46051;-84
2022/01/13 00:23:39;;;;;;;4.37;3.33;;;;;;;;;;143734;585;45022;-84
2022/01/13 00:25:38;;;;;;;6.65;3.47;;;;;;;;;;143732;637;45024;-83
2022/01/13 00:28:14;;;;;;;4.95;3.22;;;;;;;;;;143733;607;46012;-83
2022/01/13 00:30:42;;;;;;;7.15;3.58;;;;;;;;;;143732;601;46014;-83
2022/01/13 00:33:10;;;;;;;5.22;3.33;;;;;;;;;;143735;586;46018;-83
2022/01/13 00:35:39;;;;;;;8.02;4.12;;;;;;;;;;143732;593;47023;-84
2022/01/13 00:38:06;;;;;;;5.18;3.35;;;;;;;;;;143731;571;46020;-84
2022/01/13 00:40:32;;;;;;;4.97;3.10;;;;;;;;;;143726;579;47021;-83
2022/01/13 00:42:59;;;;;;;5.07;2.70;;;;;;;;;;143732;570;46020;-85
2022/01/13 00:45:26;;;;;;;5.57;2.20;;;;;;;;;;143726;586;46022;-84
2022/01/13 00:47:55;;;;;;;4.55;2.12;;;;;;;;;;143731;615;46013;-83
2022/01/13 00:50:25;;;;;;;2.58;1.87;;;;;;;;;;143732;569;46020;-83
2022/01/13 00:52:54;;;;;;;2.58;2.00;;;;;;;;;;143734;579;46018;-83
2022/01/13 00:55:22;;;;;;;2.40;1.60;;;;;;;;;;143734;596;46015;-84
2022/01/13 00:57:49;;;;;;;2.50;1.40;;;;;;;;;;143732;579;46012;-82
2022/01/13 01:00:17;;;;;;;2.87;1.80;;;;;;;;;;143734;593;46020;-84
2022/01/13 01:02:43;;;;;;;3.12;2.30;;;;;;;;;;143732;588;46021;-83
2022/01/13 01:05:10;;;;;;;4.95;3.40;;;;;;;;;;143732;571;46023;-83
2022/01/13 01:07:38;;;;;;;4.53;2.67;;;;;;;;;;143726;583;46012;-81
2022/01/13 01:10:05;;;;;;;3.92;2.08;;;;;;;;;;143723;576;46021;-83
2022/01/13 01:12:37;;;;;;;3.40;2.10;;;;;;;;;;143729;598;46012;-83
2022/01/13 01:15:05;;;;;;;3.83;2.67;;;;;;;;;;143732;573;46020;-84
2022/01/13 01:17:33;;;;;;;4.05;2.08;;;;;;;;;;143731;643;46013;-83
2022/01/13 01:20:06;;;;;;;4.18;1.90;;;;;;;;;;143733;612;46020;-83
2022/01/13 01:22:57;;;;;;;3.10;1.47;;;;;;;;;;143730;749;46012;-84
2022/01/13 01:28:15;;;;;;;2.30;1.25;;;;;;;;;;143732;612;46020;-82
2022/01/13 01:30:45;;;;;;;1.70;1.20;;;;;;;;;;143731;612;46020;-83
2022/01/13 01:33:16;;;;;;;1.95;1.12;;;;;;;;;;143731;596;46012;-82
2022/01/13 01:35:43;;;;;;;3.05;1.50;;;;;;;;;;143726;569;46022;-82
2022/01/13 01:38:10;;;;;;;1.75;1.27;;;;;;;;;;143731;682;46020;-84
2022/01/13 01:40:37;;;;;;;3.10;1.08;;;;;;;;;;143732;573;46021;-83
2022/01/13 01:43:04;;;;;;;1.92;1.30;;;;;;;;;;143732;564;46020;-83
2022/01/13 01:45:34;;;;;;;1.40;1.20;;;;;;;;;;143731;682;46020;-83
2022/01/13 01:48:04;;;;;;;2.03;1.45;;;;;;;;;;143730;599;46013;-82
2022/01/13 01:50:36;;;;;;;2.10;1.60;;;;;;;;;;143727;662;46020;-83
2022/01/13 01:53:03;;;;;;;2.97;1.85;;;;;;;;;;143727;674;47018;-83
2022/01/13 01:55:30;;;;;;;3.00;2.05;;;;;;;;;;143727;624;46021;-82
2022/01/13 01:57:56;;;;;;;2.40;1.70;;;;;;;;;;143731;589;46012;-83
2022/01/13 02:00:26;;;;;;;2.87;2.00;;;;;;;;;;143726;575;46020;-84
2022/01/13 02:02:55;;;;;;;2.90;1.95;;;;;;;;;;143727;577;46013;-83
2022/01/13 02:05:21;;;;;;;2.58;1.73;;;;;;;;;;143724;760;46020;-84
2022/01/13 02:07:48;;;;;;;4.60;1.92;;;;;;;;;;143731;566;46012;-83
2022/01/13 02:10:17;;;;;;;3.05;1.87;;;;;;;;;;143724;658;46021;-83
2022/01/13 02:12:48;;;;;;;3.28;1.87;;;;;;;;;;143727;642;46012;-83
2022/01/13 02:15:30;;;;;;;2.70;2.03;;;;;;;;;;143726;613;46020;-83
2022/01/13 02:17:57;;;;;;;3.75;2.00;;;;;;;;;;143727;617;46021;-84
2022/01/13 02:20:24;;;;;;;4.32;2.78;;;;;;;;;;143731;672;47018;-83
2022/01/13 02:22:51;;;;;;;3.70;2.67;;;;;;;;;;143732;572;46012;-84
2022/01/13 02:25:18;;;;;;;4.62;2.67;;;;;;;;;;143725;590;46022;-83
2022/01/13 02:27:46;;;;;;;6.03;3.72;;;;;;;;;;143729;682;46020;-83
2022/01/13 02:30:14;;;;;;;4.97;3.90;;;;;;;;;;143726;569;46020;-83
2022/01/13 02:32:41;;;;;;;4.78;3.50;;;;;;;;;;143729;614;46021;-83
2022/01/13 02:35:08;;;;;;;5.18;3.95;;;;;;;;;;143728;662;46020;-81
2022/01/13 02:37:35;;;;;;;7.50;3.80;;;;;;;;;;143727;575;46020;-83
2022/01/13 02:40:02;;;;;;;6.43;3.37;;;;;;;;;;143725;569;46021;-83
2022/01/13 02:42:30;;;;;;;5.87;4.10;;;;;;;;;;143728;743;46012;-82
2022/01/13 02:45:06;;;;;;;5.40;3.90;;;;;;;;;;143723;731;47022;-84
2022/01/13 02:47:47;;;;;;;6.15;4.32;;;;;;;;;;143731;574;46013;-82
2022/01/13 02:50:15;;;;;;;5.90;3.47;;;;;;;;;;143724;591;46033;-83
2022/01/13 02:52:42;;;;;;;6.32;4.18;;;;;;;;;;143726;651;46012;-82
2022/01/13 02:55:09;;;;;;;8.50;4.68;;;;;;;;;;143725;571;46022;-85
2022/01/13 02:57:37;;;;;;;5.75;3.83;;;;;;;;;;143726;570;46012;-83
2022/01/13 03:00:07;;;;;;;9.07;4.35;;;;;;;;;;143723;564;46020;-82
2022/01/13 03:02:39;;;;;;;5.50;3.90;;;;;;;;;;143727;897;46012;-83
2022/01/13 03:05:12;;;;;;;7.35;4.53;;;;;;;;;;143724;721;46023;-84
2022/01/13 03:07:39;;;;;;;5.65;3.83;;;;;;;;;;143729;593;46012;-82
2022/01/13 03:10:07;;;;;;;5.32;3.67;;;;;;;;;;143722;615;46021;-82
2022/01/13 03:12:40;;;;;;;4.68;3.72;;;;;;;;;;143727;638;46012;-83
2022/01/13 03:15:07;;;;;;;5.97;4.43;;;;;;;;;;143724;608;46049;-83
2022/01/13 03:17:34;;;;;;;6.78;5.30;;;;;;;;;;143726;725;46021;-82
2022/01/13 03:20:01;;;;;;;7.60;4.72;;;;;;;;;;143724;569;46020;-83
2022/01/13 03:22:27;;;;;;;8.02;5.40;;;;;;;;;;143727;587;46020;-83
2022/01/13 03:24:54;;;;;;;9.15;5.53;;;;;;;;;;143723;571;47022;-82
2022/01/13 03:27:23;;;;;;;10.00;5.43;;;;;;;;;;143729;730;46020;-82
2022/01/13 03:29:50;;;;;;;8.63;5.70;;;;;;;;;;143722;721;47020;-83
2022/01/13 03:32:17;;;;;;;8.30;5.07;;;;;;;;;;143725;709;47018;-82
2022/01/13 03:34:44;;;;;;;9.05;5.30;;;;;;;;;;143722;624;47022;-83
2022/01/13 03:37:11;;;;;;;9.43;6.12;;;;;;;;;;143725;581;46012;-82
2022/01/13 03:39:38;;;;;;;8.57;5.25;;;;;;;;;;143722;744;47021;-83
2022/01/13 03:42:05;;;;;;;7.50;5.28;;;;;;;;;;143728;653;46012;-85
2022/01/13 03:44:33;;;;;;;11.80;6.47;;;;;;;;;;143724;612;46040;-82
2022/01/13 03:47:04;;;;;;;10.68;6.72;;;;;;;;;;143728;586;46012;-84
2022/01/13 03:49:32;;;;;;;8.85;6.45;;;;;;;;;;143725;617;46021;-82
2022/01/13 03:52:42;;;;;;;8.18;5.85;;;;;;;;;;143727;679;46012;-82
2022/01/13 03:55:54;;;;;;;8.55;5.78;;;;;;;;;;143723;579;46023;-82
2022/01/13 03:59:11;;;;;;;10.93;6.10;;;;;;;;;;143731;622;46020;-83
2022/01/13 04:02:10;;;;;;;8.82;5.70;;;;;;;;;;143723;567;46021;-82
2022/01/13 04:04:48;;;;;;;7.97;5.32;;;;;;;;;;143727;659;46012;-81
2022/01/13 04:07:24;;;;;;;8.95;5.57;;;;;;;;;;143724;653;46022;-81
2022/01/13 04:10:24;;;;;;;11.20;6.65;;;;;;;;;;143730;587;46014;-83
2022/01/13 04:12:51;;;;;;;11.82;7.15;;;;;;;;;;143722;585;46020;-82
2022/01/13 04:15:20;;;;;;;9.80;6.65;;;;;;;;;;143731;617;46043;-82
2022/01/13 04:17:46;;;;;;;12.80;5.87;;;;;;;;;;143724;662;46052;-82
2022/01/13 04:20:15;;;;;;;8.45;5.35;;;;;;;;;;143728;566;46020;-81
2022/01/13 04:22:44;;;;;;;9.57;6.55;;;;;;;;;;143726;644;46020;-80
2022/01/13 04:25:12;;;;;;;9.27;6.47;;;;;;;;;;143728;594;46012;-81
2022/01/13 04:27:43;;;;;;;9.68;6.37;;;;;;;;;;143726;676;46022;-81
2022/01/13 04:33:04;;;;;;;8.98;6.20;;;;;;;;;;143726;669;46021;-83
2022/01/13 04:35:30;;;;;;;7.57;6.18;;;;;;;;;;143726;582;46012;-81
2022/01/13 04:37:57;;;;;;;9.10;7.10;;;;;;;;;;143724;571;46022;-83
2022/01/13 04:40:24;;;;;;;9.77;6.85;;;;;;;;;;143729;743;46012;-82
2022/01/13 04:42:54;;;;;;;11.45;8.50;;;;;;;;;;143724;577;46020;-82
2022/01/13 04:45:22;;;;;;;11.43;7.65;;;;;;;;;;143727;697;46013;-83
2022/01/13 04:47:50;;;;;;;13.25;7.30;;;;;;;;;;143728;587;46023;-81
2022/01/13 04:50:18;;;;;;;13.90;8.10;;;;;;;;;;143730;657;46012;-81
2022/01/13 04:52:45;;;;;;;9.65;7.35;;;;;;;;;;143730;639;46015;-79
2022/01/13 04:55:13;;;;;;;10.85;8.10;;;;;;;;;;143729;581;46013;-82
2022/01/13 04:57:40;;;;;;;9.25;7.32;;;;;;;;;;143724;574;46022;-82
2022/01/13 05:00:09;;;;;;;13.57;8.45;;;;;;;;;;143728;683;46012;-82
2022/01/13 05:02:36;;;;;;;14.35;7.62;;;;;;;;;;143730;702;46021;-81
2022/01/13 05:05:04;;;;;;;12.05;7.45;;;;;;;;;;143730;569;46012;-82
2022/01/13 05:07:32;;;;;;;11.50;8.02;;;;;;;;;;143725;665;47022;-82
2022/01/13 05:09:59;;;;;;;18.58;8.63;;;;;;;;;;143728;628;46020;-82
2022/01/13 05:12:32;;;;;;;11.27;8.35;;;;;;;;;;143725;597;46020;-82
2022/01/13 05:15:03;;;;;;;10.73;7.70;;;;;;;;;;143727;597;46019;-83
2022/01/13 05:18:01;;;;;;;13.30;9.23;;;;;;;;;;143726;570;46023;-82
2022/01/13 05:20:27;;;;;;;13.65;9.63;;;;;;;;;;143727;586;46021;-82
2022/01/13 05:22:54;;;;;;;18.00;10.50;;;;;;;;;;143721;704;47020;-82
2022/01/13 05:25:21;;;;;;;13.88;9.55;;;;;;;;;;143727;584;46018;-82
2022/01/13 05:27:49;;;;;;;12.23;9.07;;;;;;;;;;143725;580;46022;-82
2022/01/13 05:30:17;;;;;;;14.75;9.30;;;;;;;;;;143726;667;46020;-82
2022/01/13 05:32:46;;;;;;;16.67;11.43;;;;;;;;;;143723;647;46021;-81
2022/01/13 05:35:15;;;;;;;17.05;9.80;;;;;;;;;;143727;573;46014;-83
2022/01/13 05:37:42;;;;;;;18.55;10.23;;;;;;;;;;143724;594;47022;-82
2022/01/13 05:40:12;;;;;;;19.48;9.93;;;;;;;;;;143729;569;46012;-82
2022/01/13 05:42:40;;;;;;;13.82;9.85;;;;;;;;;;143722;642;46020;-82
2022/01/13 05:45:15;;;;;;;14.65;9.68;;;;;;;;;;143727;651;46020;-81
2022/01/13 05:47:46;;;;;;;14.73;11.02;;;;;;;;;;143721;569;47023;-81
2022/01/13 05:50:15;;;;;;;14.98;9.85;;;;;;;;;;143729;653;46012;-80
2022/01/13 05:52:42;;;;;;;16.98;10.80;;;;;;;;;;143726;589;46014;-80
2022/01/13 05:55:10;;;;;;;18.33;10.85;;;;;;;;;;143732;649;46012;-79
2022/01/13 05:57:36;;;;;;;13.88;10.32;;;;;;;;;;143726;603;46022;-82
2022/01/13 06:00:07;;;;;;;14.18;10.68;;;;;;;;;;143727;701;46013;-81
2022/01/13 06:02:34;;;;;;;13.60;10.18;;;;;;;;;;143725;611;46021;-81
2022/01/13 06:05:01;;;;;;;14.18;10.27;;;;;;;;;;143729;570;46021;-80
2022/01/13 06:07:27;;;;;;;14.13;11.23;;;;;;;;;;143725;585;46021;-81
2022/01/13 06:09:54;;;;;;;14.70;9.80;;;;;;;;;;143731;649;46020;-82
2022/01/13 06:12:31;;;;;;;15.77;11.10;;;;;;;;;;143723;709;46020;-81
2022/01/13 06:15:00;;;;;;;16.23;10.23;;;;;;;;;;143728;719;46020;-81
2022/01/13 06:17:26;;;;;;;14.43;10.45;;;;;;;;;;143724;569;46023;-81
2022/01/13 06:19:59;;;;;;;23.45;12.82;;;;;;;;;;143729;573;46012;-81
2022/01/13 06:22:26;;;;;;;18.90;11.70;;;;;;;;;;143722;588;47021;-81
2022/01/13 06:24:53;;;;;;;24.85;16.85;;;;;;;;;;143727;720;46012;-81
2022/01/13 06:27:24;;;;;;;15.88;10.50;;;;;;;;;;143724;579;46022;-81
2022/01/13 06:29:52;;;;;;;18.45;11.10;;;;;;;;;;143729;669;46013;-82
2022/01/13 06:32:21;;;;;;;19.70;12.15;;;;;;;;;;143729;677;46021;-81
2022/01/13 06:34:49;;;;;;;16.70;11.23;;;;;;;;;;143727;641;46020;-81
2022/01/13 06:37:16;;;;;;;16.92;11.80;;;;;;;;;;143723;676;46022;-80
2022/01/13 06:39:43;;;;;;;20.85;11.50;;;;;;;;;;143728;567;46012;-82
2022/01/13 06:42:09;;;;;;;23.90;16.90;;;;;;;;;;143727;709;46020;-81
2022/01/13 06:44:36;;;;;;;19.17;13.18;;;;;;;;;;143730;710;46019;-81
2022/01/13 06:47:04;;;;;;;19.50;12.20;;;;;;;;;;143730;744;47023;-80
2022/01/13 06:49:30;;;;;;;14.98;10.38;;;;;;;;;;143730;638;46014;-81
2022/01/13 06:51:57;;;;;;;18.27;13.07;;;;;;;;;;143727;699;46020;-81
2022/01/13 06:54:24;;;;;;;21.65;12.65;;;;;;;;;;143729;584;46012;-82
2022/01/13 06:56:52;;;;;;;19.40;12.75;;;;;;;;;;143724;613;47020;-80
2022/01/13 06:59:19;;;;;;;18.45;12.50;;;;;;;;;;143728;702;46020;-81
2022/01/13 07:01:47;;;;;;;18.15;12.85;;;;;;;;;;143723;571;46021;-81
2022/01/13 07:04:15;;;;;;;21.67;13.02;;;;;;;;;;143727;579;46042;-80
2022/01/13 07:06:43;;;;;;;16.45;10.93;;;;;;;;;;143724;567;46021;-81
2022/01/13 07:09:13;;;;;;;18.20;10.80;;;;;;;;;;143729;622;46021;-81
2022/01/13 07:11:41;;;;;;;22.30;13.15;;;;;;;;;;143724;607;46020;-80
2022/01/13 07:14:08;;;;;;;15.85;11.48;;;;;;;;;;143727;657;46019;-79
2022/01/13 07:16:36;;;;;;;22.00;12.50;;;;;;;;;;143730;564;46023;-80
2022/01/13 07:19:04;;;;;;;17.85;11.82;;;;;;;;;;143729;580;46012;-81
2022/01/13 07:21:31;;;;;;;17.25;10.77;;;;;;;;;;143724;698;46020;-82
2022/01/13 07:23:59;;;;;;;19.42;12.55;;;;;;;;;;143725;650;46021;-80
2022/01/13 07:26:26;;;;;;;20.42;11.12;;;;;;;;;;143719;569;47022;-81
2022/01/13 07:28:52;;;;;;;17.67;11.32;;;;;;;;;;143731;713;46012;-80
2022/01/13 07:31:19;;;;;;;22.37;12.65;;;;;;;;;;143726;594;46014;-82
2022/01/13 07:33:47;;;;;;;18.25;12.02;;;;;;;;;;143727;632;46035;-81
2022/01/13 07:36:14;;;;;;;22.45;14.95;;;;;;;;;;143727;694;46022;-81
2022/01/13 07:38:40;;;;;;;25.33;15.00;;;;;;;;;;143727;654;46020;-80
2022/01/13 07:41:07;;;;;;;18.85;12.77;;;;;;;;;;143722;571;47020;-80
2022/01/13 07:43:34;;;;;;;16.73;10.75;;;;;;;;;;143726;577;46020;-81
2022/01/13 07:46:01;;;;;;;18.77;13.35;;;;;;;;;;143726;621;46020;-80
2022/01/13 07:48:27;;;;;;;23.00;13.90;;;;;;;;;;143723;571;46020;-80
2022/01/13 07:50:55;;;;;;;18.77;11.95;;;;;;;;;;143724;575;46020;-79
2022/01/13 07:53:22;;;;;;;16.90;11.73;;;;;;;;;;143725;602;46013;-79
2022/01/13 07:55:49;;;;;;;20.77;11.05;;;;;;;;;;143721;735;47020;-79
2022/01/13 07:58:16;;;;;;;19.87;10.73;;;;;;;;;;143730;631;46012;-81
2022/01/13 08:00:43;;;;;;;19.80;10.77;;;;;;;;;;143723;682;46021;-78
2022/01/13 08:03:09;;;;;;;18.42;11.23;;;;;;;;;;143726;604;46018;-81
2022/01/13 08:05:36;;;;;;;18.70;12.25;;;;;;;;;;143724;732;46022;-80
2022/01/13 08:08:04;;;;;;;17.85;10.82;;;;;;;;;;143728;658;46013;-80
2022/01/13 08:10:31;;;;;;;19.30;13.55;;;;;;;;;;143724;716;47020;-81
2022/01/13 08:12:59;;;;;;;15.20;9.80;;;;;;;;;;143725;698;46041;-83
2022/01/13 08:15:27;;;;;;;18.60;12.50;;;;;;;;;;143725;575;47021;-82
2022/01/13 08:20:39;;;;;;;17.42;11.65;;;;;;;;;;143728;614;46014;-81
2022/01/13 08:23:06;;;;;;;18.17;11.90;;;;;;;;;;143729;695;46018;-83
2022/01/13 08:25:33;;;;;;;14.60;9.93;;;;;;;;;;143725;565;46022;-80
2022/01/13 08:27:59;;;;;;;16.45;11.60;;;;;;;;;;143731;580;46020;-81
2022/01/13 08:30:26;;;;;;;15.48;9.95;;;;;;;;;;143725;678;46021;-80
2022/01/13 08:32:53;;;;;;;20.73;12.23;;;;;;;;;;143732;604;46018;-79
2022/01/13 08:35:20;;;;;;;15.65;11.10;;;;;;;;;;143726;651;47022;-80
2022/01/13 08:37:47;;;;;;;13.52;9.60;;;;;;;;;;143728;599;46013;-82
2022/01/13 08:40:14;;;;;;;15.85;11.30;;;;;;;;;;143726;569;46020;-80
2022/01/13 08:42:41;;;;;;;14.18;9.02;;;;;;;;;;143728;566;46012;-81
2022/01/13 08:45:11;;;;;;;15.32;9.73;;;;;;;;;;143727;587;46016;-81
2022/01/13 08:47:37;;;;;;;19.70;12.40;;;;;;;;;;143726;586;46020;-82
2022/01/13 08:50:07;;;;;;;18.30;10.40;;;;;;;;;;143727;563;46020;-80
2022/01/13 08:52:38;;;;;;;16.12;11.57;;;;;;;;;;143727;579;46013;-82
2022/01/13 08:55:07;;;;;;;17.92;12.37;;;;;;;;;;143722;606;47023;-80
2022/01/13 08:57:34;;;;;;;20.00;13.07;;;;;;;;;;143728;678;46020;-79
2022/01/13 09:00:02;;;;;;;18.10;10.45;;;;;;;;;;143727;571;46018;-80
2022/01/13 09:02:33;;;;;;;17.92;11.88;;;;;;;;;;143729;569;46020;-80
2022/01/13 09:05:04;;;;;;;18.67;12.73;;;;;;;;;;143723;674;47022;-80
2022/01/13 09:07:31;;;;;;;16.35;10.98;;;;;;;;;;143726;599;46013;-80
2022/01/13 09:09:58;;;;;;;17.70;11.57;;;;;;;;;;143725;645;47020;-79
2022/01/13 09:12:27;;;;;;;18.55;11.88;;;;;;;;;;143730;571;46020;-80
2022/01/13 09:15:02;;;;;;;25.52;13.32;;;;;;;;;;143729;620;46021;-79
2022/01/13 09:17:30;;;;;;;18.27;11.48;;;;;;;;;;143729;591;46020;-80
2022/01/13 09:19:57;;;;;;;21.27;14.43;;;;;;;;;;143728;614;46014;-81
2022/01/13 09:22:23;;;;;;;21.20;14.80;;;;;;;;;;143725;633;46021;-80
2022/01/13 09:24:50;;;;;;;23.95;15.32;;;;;;;;;;143726;608;47022;-79
2022/01/13 09:27:18;;;;;;;19.73;13.18;;;;;;;;;;143727;693;46020;-80
2022/01/13 09:29:45;;;;;;;22.08;14.70;;;;;;;;;;143719;575;47020;-79
2022/01/13 09:32:12;;;;;;;17.67;14.57;;;;;;;;;;143728;683;46012;-80
2022/01/13 09:34:41;;;;;;;19.80;12.70;;;;;;;;;;143724;665;47022;-80
2022/01/13 09:37:09;;;;;;;23.12;13.43;;;;;;;;;;143728;569;46013;-80
2022/01/13 09:39:36;;;;;;;17.95;11.45;;;;;;;;;;143726;583;46020;-81
2022/01/13 09:42:03;;;;;;;18.00;12.30;;;;;;;;;;143728;682;46012;-82
2022/01/13 09:44:39;;;;;;;13.62;10.30;;;;;;;;;;143728;624;46021;-81
2022/01/13 09:47:10;;;;;;;19.75;12.05;;;;;;;;;;143736;579;45020;-82
2022/01/13 09:49:40;;;;;;;19.15;12.07;;;;;;;;;;143730;608;46014;-82
2022/01/13 09:52:07;;;;;;;23.87;12.90;;;;;;;;;;143731;661;46018;-81
2022/01/13 09:54:35;;;;;;;16.45;11.52;;;;;;;;;;143720;608;47023;-81
2022/01/13 09:57:02;;;;;;;16.17;12.43;;;;;;;;;;143730;640;46012;-81
2022/01/13 09:59:28;;;;;;;15.93;11.65;;;;;;;;;;143726;569;46021;-82
2022/01/13 10:01:55;;;;;;;17.20;12.15;;;;;;;;;;143729;565;46020;-82
2022/01/13 10:04:22;;;;;;;17.98;12.90;;;;;;;;;;143725;569;46050;-81
2022/01/13 10:06:51;;;;;;;23.70;15.00;;;;;;;;;;143732;618;46013;-82
2022/01/13 10:09:17;;;;;;;23.50;14.73;;;;;;;;;;143728;567;46018;-82
2022/01/13 10:11:54;;;;;;;25.27;17.17;;;;;;;;;;143728;729;46012;-81
2022/01/13 10:17:18;;;;;;;28.83;15.93;;;;;;;;;;143728;569;46020;-81
2022/01/13 10:19:50;;;;;;;24.25;13.10;;;;;;;;;;143724;578;46020;-80
2022/01/13 10:22:33;;;;;;;20.05;15.00;;;;;;;;;;143730;567;46018;-80
2022/01/13 10:25:00;;;;;;;23.17;16.15;;;;;;;;;;143724;581;47022;-80
2022/01/13 10:27:32;;;;;;;17.75;13.35;;;;;;;;;;143733;569;46020;-80
2022/01/13 10:30:17;;;;;;;21.83;16.77;;;;;;;;;;143728;576;46018;-80
2022/01/13 10:32:46;;;;;;;23.90;14.95;;;;;;;;;;143729;587;46012;-80
2022/01/13 10:35:16;;;;;;;22.30;15.02;;;;;;;;;;143728;591;47022;-80
2022/01/13 10:37:48;;;;;;;24.15;15.35;;;;;;;;;;143731;582;46021;-80
2022/01/13 10:40:24;;;;;;;21.80;15.95;;;;;;;;;;143727;592;46020;-80
2022/01/13 10:45:52;;;;;;;25.92;17.95;;;;;;;;;;143726;570;46014;-80
2022/01/13 10:48:27;;;;;;;25.60;17.23;;;;;;;;;;143732;564;46020;-80
2022/01/13 10:50:58;;;;;;;19.52;13.48;;;;;;;;;;143728;587;46021;-80
2022/01/13 10:53:31;;;;;;;29.98;17.20;;;;;;;;;;143729;567;46021;-80
2022/01/13 10:56:00;;;;;;;25.55;18.95;;;;;;;;;;143726;591;46022;-81
2022/01/13 10:58:35;;;;;;;24.00;16.85;;;;;;;;;;143734;592;46012;-79
2022/01/13 11:01:03;;;;;;;19.45;14.60;;;;;;;;;;143729;576;46014;-80
2022/01/13 11:03:34;;;;;;;18.77;13.82;;;;;;;;;;143728;578;46012;-81
2022/01/13 11:06:06;;;;;;;20.88;15.05;;;;;;;;;;143728;601;46022;-81
2022/01/13 11:08:44;;;;;;;25.02;16.83;;;;;;;;;;143733;579;46020;-81
2022/01/13 11:11:29;;;;;;;20.80;14.02;;;;;;;;;;143725;584;46020;-80
2022/01/13 11:14:14;;;;;;;23.27;15.52;;;;;;;;;;143729;583;46044;-80
2022/01/13 11:16:48;;;;;;;24.80;13.85;;;;;;;;;;143727;604;46020;-80
2022/01/13 11:19:17;;;;;;;22.00;13.65;;;;;;;;;;143728;569;46020;-81
2022/01/13 11:21:45;;;;;;;21.23;14.60;;;;;;;;;;143725;580;46021;-82
2022/01/13 11:24:14;;;;;;;22.42;15.40;;;;;;;;;;143728;592;46012;-81
2022/01/13 11:26:41;;;;;;;22.98;15.95;;;;;;;;;;143725;592;46022;-80
2022/01/13 11:29:08;;;;;;;19.37;13.85;;;;;;;;;;143732;564;46013;-80
2022/01/13 11:31:35;;;;;;;26.17;16.65;;;;;;;;;;143725;566;46020;-80
2022/01/13 11:34:02;;;;;;;20.33;14.80;;;;;;;;;;143730;569;46020;-81
2022/01/13 11:36:30;;;;;;;24.23;15.95;;;;;;;;;;143726;578;46022;-80
2022/01/13 11:39:00;;;;;;;33.38;19.37;;;;;;;;;;143730;588;46012;-81
2022/01/13 11:41:27;;;;;;;24.20;13.85;;;;;;;;;;143726;581;46020;-82
2022/01/13 11:44:11;;;;;;;18.27;12.70;;;;;;;;;;143729;578;46021;-82
2022/01/13 11:46:46;;;;;;;20.95;13.13;;;;;;;;;;143728;569;46022;-82
2022/01/13 11:49:32;;;;;;;22.70;15.45;;;;;;;;;;143730;563;46012;-81
2022/01/13 11:54:47;;;;;;;19.90;13.20;;;;;;;;;;143731;579;46012;-80
2022/01/13 11:57:25;;;;;;;24.27;15.77;;;;;;;;;;143727;643;46022;-80
2022/01/13 12:00:24;;;;;;;21.10;15.35;;;;;;;;;;143727;695;46012;-79
2022/01/13 12:03:00;;;;;;;17.52;11.48;;;;;;;;;;143723;591;46020;-80
2022/01/13 12:05:29;;;;;;;20.42;12.77;;;;;;;;;;143728;614;46021;-81
2022/01/13 12:07:59;;;;;;;16.80;11.88;;;;;;;;;;143726;665;46014;-80
2022/01/13 12:10:49;;;;;;;20.42;14.90;;;;;;;;;;143728;587;46012;-81
2022/01/13 12:13:50;;;;;;;16.90;11.05;;;;;;;;;;143726;677;46020;-80
2022/01/13 12:16:17;;;;;;;19.87;13.18;;;;;;;;;;143727;566;46022;-80
2022/01/13 12:19:09;;;;;;;21.08;12.88;;;;;;;;;;143728;563;46014;-80
2022/01/13 12:21:42;;;;;;;19.75;13.45;;;;;;;;;;143731;575;46029;-79
2022/01/13 12:24:18;;;;;;;18.83;12.98;;;;;;;;;;143725;651;46020;-80
2022/01/13 12:26:48;;;;;;;16.77;13.10;;;;;;;;;;143729;698;46040;-81
2022/01/13 12:29:28;;;;;;;15.43;10.02;;;;;;;;;;143726;559;46023;-81
2022/01/13 12:32:16;;;;;;;20.15;13.62;;;;;;;;;;143724;582;46020;-81
2022/01/13 12:34:47;;;;;;;18.37;12.30;;;;;;;;;;143731;609;46015;-81
2022/01/13 12:37:24;;;;;;;19.25;14.00;;;;;;;;;;143729;566;46018;-80
2022/01/13 12:40:12;;;;;;;19.23;12.23;;;;;;;;;;143724;640;47024;-80
2022/01/13 12:42:53;;;;;;;20.73;12.90;;;;;;;;;;143730;576;46013;-81
2022/01/13 12:45:33;;;;;;;22.08;14.95;;;;;;;;;;143729;624;46021;-80
2022/01/13 12:48:06;;;;;;;20.77;13.45;;;;;;;;;;143727;569;47018;-81
2022/01/13 12:50:39;;;;;;;19.45;12.37;;;;;;;;;;143730;572;46022;-82
2022/01/13 12:53:26;;;;;;;24.40;15.57;;;;;;;;;;143725;593;46020;-79
2022/01/13 12:56:09;;;;;;;16.92;13.93;;;;;;;;;;143727;588;46020;-81
2022/01/13 12:58:51;;;;;;;30.45;20.35;;;;;;;;;;143728;620;46021;-80
2022/01/13 13:01:24;;;;;;;19.75;13.80;;;;;;;;;;143730;655;46022;-81
2022/01/13 13:04:12;;;;;;;15.73;10.23;;;;;;;;;;143729;584;46020;-81
2022/01/13 13:06:46;;;;;;;26.12;18.40;;;;;;;;;;143728;636;46021;-81
2022/01/13 13:09:21;;;;;;;26.27;15.63;;;;;;;;;;143730;654;46012;-81
2022/01/13 13:12:01;;;;;;;30.40;19.10;;;;;;;;;;143727;704;46021;-80
2022/01/13 13:17:37;;;;;;;28.60;16.83;;;;;;;;;;143729;565;46014;-81
2022/01/13 13:20:06;;;;;;;22.58;16.08;;;;;;;;;;143728;567;46013;-80
2022/01/13 13:22:49;;;;;;;33.90;23.30;;;;;;;;;;143725;624;47020;-80
2022/01/13 13:25:34;;;;;;;;;;;;;;;;;;143734;603;46040;-80
2022/01/13 13:28:21;;;;;;;27.80;18.55;;;;;;;;;;143731;585;47010;-80
2022/01/13 13:31:05;;;;;;;20.52;12.88;;;;;;;;;;143729;626;46044;-80
2022/01/13 13:34:06;;;;;;;21.77;13.77;;;;;;;;;;143729;594;46012;-80
2022/01/13 13:36:59;;;;;;;27.73;17.90;;;;;;;;;;143728;636;46035;-82
2022/01/13 13:39:30;;;;;;;18.83;13.02;;;;;;;;;;143727;602;46012;-80
2022/01/13 13:42:12;;;;;;;16.60;10.25;;;;;;;;;;143726;662;47020;-80
2022/01/13 13:44:41;;;;;;;19.23;12.85;;;;;;;;;;143726;566;46021;-80
2022/01/13 13:47:19;;;;;;;17.77;13.80;;;;;;;;;;143728;609;46021;-81
2022/01/13 13:49:58;;;;;;;25.45;15.50;;;;;;;;;;143727;569;46020;-80
2022/01/13 13:52:24;;;;;;;18.12;13.62;;;;;;;;;;143730;577;46020;-81
2022/01/13 13:54:53;;;;;;;15.43;11.35;;;;;;;;;;143725;625;47020;-82
2022/01/13 13:57:41;;;;;;;24.00;15.10;;;;;;;;;;143729;565;46013;-81
2022/01/13 14:00:17;;;;;;;14.65;10.48;;;;;;;;;;143727;572;46012;-81
2022/01/13 14:02:50;;;;;;;15.98;10.57;;;;;;;;;;143728;584;47018;-80
2022/01/13 14:05:18;;;;;;;18.55;12.32;;;;;;;;;;143725;569;47020;-80
2022/01/13 14:07:51;;;;;;;17.42;12.68;;;;;;;;;;143730;639;47020;-80
2022/01/13 14:10:23;;;;;;;19.67;14.75;;;;;;;;;;143728;697;46020;-79
2022/01/13 14:13:09;;;;;;;15.10;9.82;;;;;;;;;;143730;607;46018;-79
2022/01/13 14:15:42;;;;;;;19.52;12.93;;;;;;;;;;143729;705;46012;-81
2022/01/13 14:18:20;;;;;;;19.30;13.68;;;;;;;;;;143732;697;46012;-80
2022/01/13 14:21:12;;;;;;;14.55;11.32;;;;;;;;;;143724;638;46021;-80
2022/01/13 14:23:54;;;;;;;20.37;14.77;;;;;;;;;;143730;632;46012;-80
2022/01/13 14:26:22;;;;;;;21.00;15.32;;;;;;;;;;143725;593;47022;-80
2022/01/13 14:28:56;;;;;;;33.00;22.87;;;;;;;;;;143729;724;46014;-80
2022/01/13 14:31:23;;;;;;;29.00;20.65;;;;;;;;;;143730;572;46020;-80
2022/01/13 14:33:54;;;;;;;26.50;19.10;;;;;;;;;;143728;566;46012;-80
2022/01/13 14:36:37;;;;;;;22.73;15.73;;;;;;;;;;143729;569;46023;-80
2022/01/13 14:39:12;;;;;;;22.25;14.60;;;;;;;;;;143729;673;46012;-81
2022/01/13 14:41:40;;;;;;;20.10;15.70;;;;;;;;;;143726;658;46020;-81
2022/01/13 14:44:12;;;;;;;19.12;13.90;;;;;;;;;;143728;590;47018;-82
2022/01/13 14:46:44;;;;;;;23.20;15.27;;;;;;;;;;143723;572;47022;-80
2022/01/13 14:49:17;;;;;;;23.67;14.77;;;;;;;;;;143728;590;46012;-81
2022/01/13 14:51:47;;;;;;;19.75;14.25;;;;;;;;;;143725;569;46021;-80
2022/01/13 14:54:15;;;;;;;22.48;13.57;;;;;;;;;;143726;651;47010;-81
2022/01/13 14:56:49;;;;;;;22.40;15.55;;;;;;;;;;143729;673;46022;-80
2022/01/13 14:59:17;;;;;;;18.25;11.48;;;;;;;;;;143729;583;46012;-81
2022/01/13 15:01:45;;;;;;;15.38;11.48;;;;;;;;;;143730;703;46020;-81
2022/01/13 15:04:18;;;;;;;30.27;17.98;;;;;;;;;;143731;628;46013;-82
2022/01/13 15:06:45;;;;;;;22.75;16.40;;;;;;;;;;143720;677;46023;-82
2022/01/13 15:09:14;;;;;;;27.52;13.45;;;;;;;;;;143723;625;47020;-82
2022/01/13 15:11:45;;;;;;;19.98;14.35;;;;;;;;;;143729;668;46021;-80
2022/01/13 15:14:19;;;;;;;25.45;16.85;;;;;;;;;;143729;564;46012;-81
2022/01/13 15:16:47;;;;;;;33.70;17.20;;;;;;;;;;143731;589;46022;-81